createdAt,value
2023-02-22T00:00:12.135Z,2.28
2023-02-22T00:02:38.665Z,1.90
2023-02-22T00:05:05.204Z,2.38
2023-02-22T00:07:31.682Z,1.75
2023-02-22T00:09:58.158Z,2.03
2023-02-22T00:12:24.628Z,1.90
2023-02-22T00:14:51.177Z,1.60
2023-02-22T00:17:17.683Z,1.88
2023-02-22T00:19:44.184Z,1.67
2023-02-22T00:22:10.652Z,2.03
2023-02-22T00:24:37.127Z,1.40
2023-02-22T00:27:03.658Z,2.38
2023-02-22T00:29:30.130Z,2.10
2023-02-22T00:31:56.713Z,1.92
2023-02-22T00:34:23.276Z,1.92
2023-02-22T00:36:49.785Z,2.40
2023-02-22T00:39:16.262Z,1.45
2023-02-22T00:41:42.879Z,1.88
2023-02-22T00:44:09.461Z,2.03
2023-02-22T00:46:35.977Z,1.95
2023-02-22T00:49:02.451Z,1.70
2023-02-22T00:51:28.980Z,1.45
2023-02-22T00:53:55.473Z,1.63
2023-02-22T00:56:21.917Z,1.73
2023-02-22T00:58:48.375Z,2.08
2023-02-22T01:01:15.265Z,2.08
2023-02-22T01:03:41.965Z,2.10
2023-02-22T01:06:08.676Z,1.77
2023-02-22T01:08:35.186Z,2.03
2023-02-22T01:11:01.676Z,1.95
2023-02-22T01:13:28.160Z,1.85
2023-02-22T01:15:54.612Z,1.95
2023-02-22T01:18:21.116Z,1.70
2023-02-22T01:20:47.588Z,1.88
2023-02-22T01:23:14.114Z,2.00
2023-02-22T01:25:40.598Z,1.90
2023-02-22T01:28:07.077Z,2.20
2023-02-22T01:30:33.680Z,1.58
2023-02-22T01:33:00.227Z,1.77
2023-02-22T01:35:26.714Z,1.70
2023-02-22T01:37:53.208Z,1.90
2023-02-22T01:40:19.695Z,1.92
2023-02-22T01:42:46.156Z,1.63
2023-02-22T01:45:12.634Z,2.22
2023-02-22T01:47:39.159Z,1.70
2023-02-22T01:50:05.649Z,1.85
2023-02-22T01:52:32.148Z,1.60
2023-02-22T01:54:58.660Z,1.63
2023-02-22T01:57:25.130Z,1.85
2023-02-22T01:59:51.708Z,1.95
2023-02-22T02:02:18.232Z,2.65
2023-02-22T02:04:44.754Z,2.13
2023-02-22T02:07:11.218Z,2.20
2023-02-22T02:09:37.672Z,1.42
2023-02-22T02:12:04.145Z,1.70
2023-02-22T02:14:30.654Z,1.55
2023-02-22T02:16:57.152Z,1.60
2023-02-22T02:19:23.664Z,1.33
2023-02-22T02:21:50.115Z,1.83
2023-02-22T02:24:16.600Z,1.67
2023-02-22T02:26:43.051Z,1.73
2023-02-22T02:29:09.498Z,1.55
2023-02-22T02:31:36.022Z,1.60
2023-02-22T02:34:02.509Z,2.00
2023-02-22T02:42:10.381Z,1.85
2023-02-22T02:44:36.882Z,1.73
2023-02-22T02:47:03.388Z,1.63
2023-02-22T02:49:29.915Z,1.55
2023-02-22T02:51:56.436Z,1.88
2023-02-22T02:54:22.892Z,1.40
2023-02-22T02:56:49.350Z,1.98
2023-02-22T02:59:15.809Z,1.23
2023-02-22T03:01:42.286Z,1.58
2023-02-22T03:04:08.782Z,1.63
2023-02-22T03:06:35.238Z,2.10
2023-02-22T03:09:01.748Z,1.85
2023-02-22T03:11:28.200Z,1.65
2023-02-22T03:13:54.716Z,1.40
2023-02-22T03:16:21.241Z,1.85
2023-02-22T03:18:47.736Z,1.80
2023-02-22T03:21:14.398Z,1.60
2023-02-22T03:23:40.928Z,2.03
2023-02-22T03:26:07.423Z,1.33
2023-02-22T03:28:33.915Z,1.80
2023-02-22T03:31:00.413Z,1.35
2023-02-22T03:33:26.863Z,1.60
2023-02-22T03:35:53.347Z,1.90
2023-02-22T03:38:19.832Z,1.98
2023-02-22T03:40:46.290Z,1.67
2023-02-22T03:43:12.777Z,1.40
2023-02-22T03:45:39.249Z,1.63
2023-02-22T03:48:05.731Z,1.45
2023-02-22T03:50:32.194Z,1.50
2023-02-22T03:52:58.709Z,1.85
2023-02-22T03:55:25.166Z,1.42
2023-02-22T03:57:51.665Z,1.70
2023-02-22T04:00:18.165Z,1.98
2023-02-22T04:02:44.652Z,1.38
2023-02-22T04:05:11.128Z,1.65
2023-02-22T04:07:37.641Z,1.52
2023-02-22T04:10:04.144Z,1.60
2023-02-22T04:12:30.627Z,1.42
2023-02-22T04:14:57.105Z,1.40
2023-02-22T04:17:23.614Z,1.60
2023-02-22T04:19:50.066Z,1.63
2023-02-22T04:22:16.541Z,1.77
2023-02-22T04:24:43.042Z,1.40
2023-02-22T04:27:09.571Z,1.20
2023-02-22T04:29:36.083Z,1.30
2023-02-22T04:32:02.566Z,1.38
2023-02-22T04:34:29.068Z,1.75
2023-02-22T04:36:55.574Z,1.63
2023-02-22T04:39:22.074Z,1.33
2023-02-22T04:41:48.577Z,1.60
2023-02-22T04:44:15.060Z,1.27
2023-02-22T04:46:41.602Z,1.58
2023-02-22T04:49:08.106Z,1.75
2023-02-22T04:51:34.577Z,1.77
2023-02-22T04:54:01.024Z,1.48
2023-02-22T04:56:27.569Z,1.73
2023-02-22T04:58:54.057Z,1.23
2023-02-22T05:01:20.589Z,1.73
2023-02-22T05:03:47.096Z,1.20
2023-02-22T05:06:13.573Z,1.58
2023-02-22T05:08:40.100Z,1.38
2023-02-22T05:11:06.668Z,1.60
2023-02-22T05:13:33.175Z,1.50
2023-02-22T05:15:59.676Z,1.58
2023-02-22T05:18:26.150Z,1.67
2023-02-22T05:20:52.709Z,1.60
2023-02-22T05:23:19.222Z,1.80
2023-02-22T05:25:45.704Z,1.52
2023-02-22T05:28:12.169Z,1.85
2023-02-22T05:30:38.703Z,1.73
2023-02-22T05:33:05.222Z,1.77
2023-02-22T05:35:31.736Z,1.40
2023-02-22T05:37:58.189Z,1.90
2023-02-22T05:40:24.641Z,1.63
2023-02-22T05:42:51.143Z,2.30
2023-02-22T05:45:17.640Z,1.40
2023-02-22T05:47:44.106Z,1.58
2023-02-22T05:50:10.593Z,1.80
2023-02-22T05:52:37.094Z,1.77
2023-02-22T05:55:03.559Z,1.70
2023-02-22T05:57:30.045Z,1.40
2023-02-22T05:59:56.517Z,1.98
2023-02-22T06:02:22.971Z,1.63
2023-02-22T06:04:49.434Z,1.58
2023-02-22T06:07:15.907Z,2.17
2023-02-22T06:09:42.394Z,1.98
2023-02-22T06:12:08.909Z,1.70
2023-02-22T06:14:35.395Z,1.38
2023-02-22T06:17:01.850Z,1.45
2023-02-22T06:19:28.351Z,1.65
2023-02-22T06:21:54.852Z,1.85
2023-02-22T06:24:21.437Z,1.92
2023-02-22T06:26:47.898Z,1.65
2023-02-22T06:29:14.376Z,1.60
2023-02-22T06:31:41.004Z,1.90
2023-02-22T06:34:07.518Z,1.60
2023-02-22T06:36:34.023Z,1.80
2023-02-22T06:39:00.471Z,1.83
2023-02-22T06:41:26.990Z,2.00
2023-02-22T06:43:53.496Z,1.73
2023-02-22T06:46:20.009Z,1.70
2023-02-22T06:48:46.460Z,1.98
2023-02-22T06:51:12.949Z,1.60
2023-02-22T06:53:39.477Z,1.70
2023-02-22T06:56:05.974Z,2.05
2023-02-22T06:58:32.447Z,1.98
2023-02-22T07:00:58.943Z,1.60
2023-02-22T07:03:25.482Z,1.70
2023-02-22T07:05:52.203Z,1.92
2023-02-22T07:08:18.690Z,2.15
2023-02-22T07:10:45.190Z,1.67
2023-02-22T07:13:11.717Z,1.65
2023-02-22T07:15:38.203Z,2.08
2023-02-22T07:18:04.768Z,1.98
2023-02-22T07:20:31.313Z,1.73
2023-02-22T07:22:57.857Z,2.03
2023-02-22T07:25:24.385Z,1.95
2023-02-22T07:27:50.901Z,1.83
2023-02-22T07:30:17.438Z,1.98
2023-02-22T07:32:44.119Z,2.00
2023-02-22T07:35:10.778Z,1.92
2023-02-22T07:37:37.272Z,1.50
2023-02-22T07:40:03.773Z,2.10
2023-02-22T07:42:30.245Z,2.15
2023-02-22T07:44:56.706Z,2.65
2023-02-22T07:47:23.226Z,2.50
2023-02-22T07:49:49.715Z,2.10
2023-02-22T07:52:16.217Z,2.20
2023-02-22T07:54:42.692Z,2.35
2023-02-22T07:57:09.185Z,2.42
2023-02-22T07:59:35.677Z,2.22
2023-02-22T08:02:02.216Z,1.98
2023-02-22T08:04:28.678Z,2.17
2023-02-22T08:06:55.134Z,2.50
2023-02-22T08:09:21.628Z,2.35
2023-02-22T08:11:48.138Z,2.60
2023-02-22T08:14:14.622Z,2.92
2023-02-22T08:16:41.100Z,3.25
2023-02-22T08:19:07.637Z,2.70
2023-02-22T08:21:34.139Z,2.33
2023-02-22T08:24:00.601Z,2.50
2023-02-22T08:26:27.050Z,2.53
2023-02-22T08:28:53.740Z,2.80
2023-02-22T08:31:20.542Z,2.78
2023-02-22T08:33:47.186Z,3.07
2023-02-22T08:36:13.695Z,2.78
2023-02-22T08:38:40.208Z,2.88
2023-02-22T08:41:06.703Z,3.10
2023-02-22T08:43:33.175Z,2.72
2023-02-22T08:45:59.699Z,3.08
2023-02-22T08:48:26.254Z,2.55
2023-02-22T08:50:52.790Z,2.35
2023-02-22T08:53:19.244Z,2.92
2023-02-22T08:55:45.816Z,2.80
2023-02-22T08:58:12.482Z,2.22
2023-02-22T09:00:39.189Z,3.13
2023-02-22T09:03:05.720Z,2.88
2023-02-22T09:05:32.213Z,2.58
2023-02-22T09:07:58.700Z,2.78
2023-02-22T09:10:25.216Z,3.25
2023-02-22T09:12:51.685Z,2.35
2023-02-22T09:15:18.164Z,2.75
2023-02-22T09:17:44.750Z,2.63
2023-02-22T09:20:11.292Z,2.63
2023-02-22T09:22:37.790Z,2.63
2023-02-22T09:25:16.011Z,2.80
2023-02-22T09:27:43.063Z,2.72
2023-02-22T09:30:09.541Z,3.08
2023-02-22T09:32:36.168Z,2.72
2023-02-22T09:35:02.779Z,2.80
2023-02-22T09:37:29.310Z,2.30
2023-02-22T09:39:55.840Z,2.45
2023-02-22T09:42:22.345Z,2.60
2023-02-22T09:44:48.825Z,2.88
2023-02-22T09:47:15.336Z,2.28
2023-02-22T09:49:41.853Z,2.90
2023-02-22T09:52:08.369Z,2.70
2023-02-22T09:54:34.835Z,2.78
2023-02-22T09:57:01.288Z,2.50
2023-02-22T09:59:27.810Z,2.65
2023-02-22T10:01:54.308Z,2.83
2023-02-22T10:04:20.798Z,2.40
2023-02-22T10:06:47.303Z,2.55
2023-02-22T10:09:13.777Z,2.70
2023-02-22T10:11:40.322Z,2.38
2023-02-22T10:14:14.242Z,2.67
2023-02-22T10:16:40.846Z,2.63
2023-02-22T10:19:07.355Z,2.03
2023-02-22T10:21:33.851Z,2.50
2023-02-22T10:24:00.306Z,2.00
2023-02-22T10:26:26.799Z,2.50
2023-02-22T10:28:53.314Z,2.20
2023-02-22T10:31:19.896Z,2.60
2023-02-22T10:33:46.456Z,2.45
2023-02-22T10:36:12.941Z,2.42
2023-02-22T10:38:39.432Z,2.47
2023-02-22T10:41:05.893Z,2.03
2023-02-22T10:43:32.408Z,2.45
2023-02-22T10:45:58.881Z,2.22
2023-02-22T10:48:25.344Z,2.30
2023-02-22T10:50:51.831Z,2.10
2023-02-22T10:53:18.307Z,2.08
2023-02-22T10:55:44.787Z,2.15
2023-02-22T10:58:11.270Z,2.13
2023-02-22T11:00:37.802Z,2.05
2023-02-22T11:03:04.299Z,2.53
2023-02-22T11:05:30.834Z,2.17
2023-02-22T11:07:57.298Z,1.98
2023-02-22T11:10:26.504Z,2.10
2023-02-22T11:12:52.979Z,2.63
2023-02-22T11:15:19.454Z,2.00
2023-02-22T11:17:45.954Z,2.30
2023-02-22T11:20:12.462Z,2.33
2023-02-22T11:22:39.035Z,2.17
2023-02-22T11:25:05.559Z,2.33
2023-02-22T11:27:32.030Z,2.38
2023-02-22T11:29:58.501Z,2.00
2023-02-22T11:32:25.032Z,2.28
2023-02-22T11:35:00.218Z,2.25
2023-02-22T11:37:34.716Z,2.40
2023-02-22T11:40:01.192Z,2.20
2023-02-22T11:42:27.684Z,2.30
2023-02-22T11:44:54.152Z,1.67
2023-02-22T11:47:20.664Z,2.05
2023-02-22T11:49:47.166Z,2.13
2023-02-22T11:52:13.635Z,2.42
2023-02-22T11:54:40.142Z,2.33
2023-02-22T11:57:06.660Z,1.67
2023-02-22T11:59:33.119Z,1.92
2023-02-22T12:01:59.648Z,2.33
2023-02-22T12:04:26.120Z,2.42
2023-02-22T12:06:52.643Z,1.95
2023-02-22T12:09:19.166Z,1.30
2023-02-22T12:11:45.631Z,1.48
2023-02-22T12:14:12.104Z,1.83
2023-02-22T12:16:38.609Z,1.80
2023-02-22T12:19:05.128Z,2.00
2023-02-22T12:21:31.572Z,2.03
2023-02-22T12:23:58.026Z,2.55
2023-02-22T12:26:24.482Z,1.80
2023-02-22T12:28:51.026Z,1.63
2023-02-22T12:31:17.869Z,1.90
2023-02-22T12:33:44.661Z,2.13
2023-02-22T12:36:11.137Z,1.88
2023-02-22T12:38:37.611Z,1.92
2023-02-22T12:41:04.129Z,1.95
2023-02-22T12:43:30.598Z,2.00
2023-02-22T12:45:57.094Z,1.38
2023-02-22T12:48:23.592Z,1.52
2023-02-22T12:50:50.067Z,1.65
2023-02-22T12:53:16.521Z,1.88
2023-02-22T12:55:43.053Z,1.77
2023-02-22T12:58:09.571Z,2.38
2023-02-22T13:00:36.104Z,1.80
2023-02-22T13:03:02.603Z,1.58
2023-02-22T13:05:29.145Z,2.10
2023-02-22T13:07:55.718Z,1.98
2023-02-22T13:10:22.224Z,2.00
2023-02-22T13:12:50.708Z,1.90
2023-02-22T13:15:18.528Z,1.92
2023-02-22T13:17:45.029Z,1.80
2023-02-22T13:20:11.500Z,1.83
2023-02-22T13:22:37.960Z,1.73
2023-02-22T13:25:04.431Z,1.80
2023-02-22T13:27:30.876Z,1.80
2023-02-22T13:29:57.364Z,1.92
2023-02-22T13:32:23.885Z,1.58
2023-02-22T13:34:50.631Z,1.75
2023-02-22T13:37:17.195Z,1.80
2023-02-22T13:39:43.672Z,1.55
2023-02-22T13:42:10.154Z,1.73
2023-02-22T13:44:36.999Z,1.60
2023-02-22T13:47:03.455Z,1.33
2023-02-22T13:49:29.947Z,1.60
2023-02-22T13:51:56.399Z,1.90
2023-02-22T13:54:22.920Z,1.65
2023-02-22T13:56:49.413Z,1.60
2023-02-22T13:59:15.933Z,1.70
2023-02-22T14:01:42.442Z,2.03
2023-02-22T14:04:08.975Z,1.45
2023-02-22T14:06:35.451Z,1.70
2023-02-22T14:09:02.003Z,1.73
2023-02-22T14:11:28.501Z,1.73
2023-02-22T14:13:54.997Z,1.83
2023-02-22T14:16:21.496Z,1.52
2023-02-22T14:18:47.957Z,1.40
2023-02-22T14:21:14.453Z,1.40
2023-02-22T14:23:40.975Z,1.40
2023-02-22T14:26:07.513Z,1.80
2023-02-22T14:28:34.056Z,2.00
2023-02-22T14:31:00.628Z,1.92
2023-02-22T14:33:27.618Z,1.48
2023-02-22T14:35:54.075Z,1.40
2023-02-22T14:38:20.528Z,1.50
2023-02-22T14:40:46.976Z,1.70
2023-02-22T14:43:13.461Z,1.65
2023-02-22T14:45:39.953Z,1.70
2023-02-22T14:48:06.487Z,1.60
2023-02-22T14:50:32.946Z,2.10
2023-02-22T14:52:59.428Z,1.67
2023-02-22T14:55:25.946Z,1.60
2023-02-22T14:57:52.444Z,1.83
2023-02-22T15:00:18.993Z,1.80
2023-02-22T15:02:45.538Z,1.73
2023-02-22T15:05:12.029Z,1.85
2023-02-22T15:07:38.504Z,1.52
2023-02-22T15:10:05.005Z,1.90
2023-02-22T15:12:31.518Z,1.75
2023-02-22T15:14:58.008Z,1.90
2023-02-22T15:17:24.487Z,1.30
2023-02-22T15:19:51.005Z,2.10
2023-02-22T15:22:17.519Z,1.83
2023-02-22T15:24:44.027Z,1.83
2023-02-22T15:27:10.491Z,1.77
2023-02-22T15:29:36.992Z,2.30
2023-02-22T15:32:03.503Z,1.70
2023-02-22T15:34:30.047Z,1.83
2023-02-22T15:36:56.540Z,2.20
2023-02-22T15:39:23.004Z,1.98
2023-02-22T15:41:49.466Z,1.70
2023-02-22T15:44:23.802Z,1.90
2023-02-22T15:46:50.690Z,1.77
2023-02-22T15:49:17.247Z,1.95
2023-02-22T15:51:43.702Z,1.60
2023-02-22T15:54:18.346Z,2.08
2023-02-22T15:56:51.720Z,1.65
2023-02-22T15:59:18.172Z,2.00
2023-02-22T16:01:44.749Z,2.00
2023-02-22T16:04:11.310Z,2.20
2023-02-22T16:06:37.824Z,2.05
2023-02-22T16:09:04.290Z,2.10
2023-02-22T16:11:30.839Z,2.50
2023-02-22T16:13:57.324Z,2.30
2023-02-22T16:16:23.905Z,2.15
2023-02-22T16:18:50.407Z,1.77
2023-02-22T16:21:17.389Z,2.20
2023-02-22T16:23:44.221Z,2.00
2023-02-22T16:26:10.743Z,1.63
2023-02-22T16:28:37.263Z,2.20
2023-02-22T16:31:03.900Z,2.38
2023-02-22T16:33:30.517Z,2.30
2023-02-22T16:35:56.987Z,1.92
2023-02-22T16:38:23.493Z,2.10
2023-02-22T16:40:49.962Z,2.20
2023-02-22T16:43:16.428Z,1.83
2023-02-22T16:45:43.028Z,2.20
2023-02-22T16:48:09.610Z,2.08
2023-02-22T16:50:36.109Z,2.13
2023-02-22T16:53:02.578Z,2.40
2023-02-22T16:55:29.034Z,1.80
2023-02-22T16:57:55.541Z,2.45
2023-02-22T17:00:22.020Z,2.63
2023-02-22T17:02:48.577Z,2.20
2023-02-22T17:05:15.045Z,2.38
2023-02-22T17:07:41.587Z,2.10
2023-02-22T17:10:08.138Z,2.65
2023-02-22T17:12:34.625Z,2.13
2023-02-22T17:15:01.100Z,2.58
2023-02-22T17:17:27.612Z,2.75
2023-02-22T17:19:54.127Z,2.63
2023-02-22T17:22:20.581Z,2.25
2023-02-22T17:24:47.104Z,2.60
2023-02-22T17:27:13.609Z,2.65
2023-02-22T17:29:40.077Z,2.58
2023-02-22T17:32:06.583Z,2.58
2023-02-22T17:34:33.151Z,2.45
2023-02-22T17:36:59.622Z,2.63
2023-02-22T17:39:26.072Z,2.20
2023-02-22T17:41:54.757Z,2.75
2023-02-22T17:44:21.286Z,2.35
2023-02-22T17:46:47.804Z,2.28
2023-02-22T17:49:14.266Z,2.42
2023-02-22T17:51:40.758Z,2.15
2023-02-22T17:54:09.010Z,2.35
2023-02-22T17:56:35.896Z,2.50
2023-02-22T17:59:02.346Z,2.40
2023-02-22T18:01:28.815Z,2.30
2023-02-22T18:03:55.323Z,2.10
2023-02-22T18:06:25.017Z,2.13
2023-02-22T18:08:53.589Z,3.08
2023-02-22T18:11:21.957Z,2.60
2023-02-22T18:13:48.458Z,2.70
2023-02-22T18:16:14.976Z,2.85
2023-02-22T18:18:41.492Z,2.92
2023-02-22T18:21:08.024Z,2.60
2023-02-22T18:23:34.528Z,2.47
2023-02-22T18:26:10.575Z,2.95
2023-02-22T18:28:37.914Z,2.22
2023-02-22T18:31:04.487Z,2.40
2023-02-22T18:33:31.002Z,2.20
2023-02-22T18:35:57.505Z,2.40
2023-02-22T18:38:23.997Z,2.08
2023-02-22T18:40:50.466Z,2.45
2023-02-22T18:43:16.996Z,2.63
2023-02-22T18:45:43.459Z,2.70
2023-02-22T18:48:09.928Z,2.58
2023-02-22T18:50:36.487Z,2.50
2023-02-22T18:53:02.951Z,2.65
2023-02-22T18:55:29.457Z,2.80
2023-02-22T18:57:55.950Z,2.83
2023-02-22T19:00:22.429Z,2.75
2023-02-22T19:02:48.900Z,2.38
2023-02-22T19:05:15.389Z,2.95
2023-02-22T19:07:41.887Z,2.63
2023-02-22T19:10:08.389Z,3.53
2023-02-22T19:12:34.877Z,2.72
2023-02-22T19:15:01.342Z,3.10
2023-02-22T19:17:27.884Z,2.55
2023-02-22T19:19:54.358Z,2.25
2023-02-22T19:22:20.815Z,2.65
2023-02-22T19:24:47.290Z,3.28
2023-02-22T19:27:13.825Z,2.50
2023-02-22T19:29:40.319Z,2.55
2023-02-22T19:32:06.922Z,3.53
2023-02-22T19:34:33.414Z,3.03
2023-02-22T19:36:59.925Z,3.25
2023-02-22T19:39:26.392Z,3.00
2023-02-22T19:41:52.893Z,2.75
2023-02-22T19:44:19.388Z,3.25
2023-02-22T19:46:47.684Z,2.45
2023-02-22T19:49:14.223Z,3.03
2023-02-22T19:51:40.671Z,2.75
2023-02-22T19:54:07.148Z,3.28
2023-02-22T19:56:33.685Z,2.70
2023-02-22T19:59:00.196Z,3.30
2023-02-22T20:01:26.674Z,2.97
2023-02-22T20:03:53.288Z,3.05
2023-02-22T20:06:19.879Z,3.28
2023-02-22T20:08:46.406Z,3.28
2023-02-22T20:11:12.915Z,2.92
2023-02-22T20:13:39.446Z,3.90
2023-02-22T20:16:05.930Z,3.83
2023-02-22T20:18:32.479Z,3.88
2023-02-22T20:20:58.970Z,3.47
2023-02-22T20:23:25.510Z,2.75
2023-02-22T20:25:52.095Z,3.08
2023-02-22T20:28:18.580Z,3.30
2023-02-22T20:30:45.124Z,3.50
2023-02-22T20:33:11.848Z,3.03
2023-02-22T20:35:38.411Z,3.47
2023-02-22T20:38:04.863Z,3.55
2023-02-22T20:40:31.358Z,3.95
2023-02-22T20:42:57.882Z,3.10
2023-02-22T20:45:24.363Z,3.83
2023-02-22T20:47:50.850Z,3.30
2023-02-22T20:50:17.364Z,3.22
2023-02-22T20:52:43.845Z,3.25
2023-02-22T20:55:10.339Z,3.10
2023-02-22T20:57:36.833Z,3.58
2023-02-22T21:00:03.281Z,3.10
2023-02-22T21:02:29.769Z,3.80
2023-02-22T21:04:56.232Z,3.95
2023-02-22T21:07:22.792Z,3.05
2023-02-22T21:09:49.277Z,3.47
2023-02-22T21:12:15.785Z,3.17
2023-02-22T21:14:42.288Z,3.20
2023-02-22T21:17:08.863Z,3.30
2023-02-22T21:19:35.406Z,3.70
2023-02-22T21:22:01.949Z,3.58
2023-02-22T21:24:28.468Z,4.22
2023-02-22T21:26:55.016Z,3.90
2023-02-22T21:29:21.508Z,4.03
2023-02-22T21:31:48.134Z,4.15
2023-02-22T21:34:14.714Z,3.65
2023-02-22T21:36:41.212Z,3.60
2023-02-22T21:39:07.708Z,3.63
2023-02-22T21:41:34.253Z,4.20
2023-02-22T21:44:00.741Z,4.40
2023-02-22T21:46:27.301Z,4.03
2023-02-22T21:48:53.853Z,3.92
2023-02-22T21:51:20.423Z,3.70
2023-02-22T21:53:46.976Z,3.53
2023-02-22T21:56:13.440Z,3.85
2023-02-22T21:58:39.883Z,4.25
2023-02-22T22:01:06.430Z,3.75
2023-02-22T22:03:32.905Z,3.95
2023-02-22T22:05:59.412Z,3.60
2023-02-22T22:08:25.902Z,3.95
2023-02-22T22:10:52.396Z,3.35
2023-02-22T22:13:18.855Z,3.92
2023-02-22T22:15:45.394Z,3.58
2023-02-22T22:18:11.893Z,3.67
2023-02-22T22:20:38.420Z,4.03
2023-02-22T22:23:04.959Z,3.97
2023-02-22T22:25:31.442Z,3.20
2023-02-22T22:27:57.938Z,3.78
2023-02-22T22:30:24.463Z,3.47
2023-02-22T22:32:50.932Z,3.65
2023-02-22T22:35:17.388Z,3.95
2023-02-22T22:37:43.856Z,3.78
2023-02-22T22:40:10.348Z,4.03
2023-02-22T22:42:36.832Z,3.85
2023-02-22T22:45:03.322Z,3.40
2023-02-22T22:47:29.822Z,3.72
2023-02-22T22:49:56.290Z,3.83
2023-02-22T22:52:22.727Z,3.97
2023-02-22T22:54:49.198Z,3.85
2023-02-22T22:57:15.737Z,3.55
2023-02-22T22:59:42.248Z,3.65
2023-02-22T23:02:08.770Z,4.00
2023-02-22T23:04:35.221Z,3.47
2023-02-22T23:07:01.663Z,3.38
2023-02-22T23:09:28.115Z,3.42
2023-02-22T23:11:54.568Z,3.35
2023-02-22T23:14:21.012Z,3.67
2023-02-22T23:16:47.489Z,3.70
2023-02-22T23:19:13.987Z,3.25
2023-02-22T23:21:40.475Z,4.60
2023-02-22T23:24:06.973Z,3.25
2023-02-22T23:26:33.459Z,4.00
2023-02-22T23:28:59.954Z,3.17
2023-02-22T23:31:26.535Z,3.10
2023-02-22T23:33:53.067Z,3.50
2023-02-22T23:36:19.582Z,4.13
2023-02-22T23:38:46.064Z,4.03
2023-02-22T23:41:12.553Z,4.03
2023-02-22T23:43:39.038Z,3.92
2023-02-22T23:46:05.513Z,4.07
2023-02-22T23:48:32.006Z,3.85
2023-02-22T23:50:58.489Z,3.63
2023-02-22T23:53:24.972Z,3.88
2023-02-22T23:55:51.447Z,3.70
2023-02-22T23:58:17.924Z,4.05
